createdAt,value
2022-11-01T00:02:11.666Z,14.80
2022-11-01T00:04:38.417Z,14.90
2022-11-01T00:07:06.263Z,14.80
2022-11-01T00:09:36.006Z,14.80
2022-11-01T00:12:02.816Z,14.80
2022-11-01T00:14:29.594Z,14.90
2022-11-01T00:16:56.415Z,14.80
2022-11-01T00:19:23.289Z,14.90
2022-11-01T00:21:50.348Z,14.80
2022-11-01T00:24:17.114Z,14.90
2022-11-01T00:26:43.971Z,14.90
2022-11-01T00:29:15.330Z,14.80
2022-11-01T00:31:42.257Z,14.80
2022-11-01T00:34:09.057Z,14.90
2022-11-01T00:36:36.599Z,14.90
2022-11-01T00:39:05.101Z,14.90
2022-11-01T00:41:31.814Z,15.00
2022-11-01T00:43:58.679Z,15.00
2022-11-01T00:46:26.098Z,14.90
2022-11-01T00:48:52.767Z,15.00
2022-11-01T00:51:19.456Z,15.00
2022-11-01T00:53:46.410Z,15.00
2022-11-01T00:56:14.528Z,15.00
2022-11-01T00:58:41.280Z,14.90
2022-11-01T01:01:08.255Z,15.00
2022-11-01T01:03:35.517Z,14.90
2022-11-01T01:06:02.629Z,14.90
2022-11-01T01:08:29.344Z,15.00
2022-11-01T01:10:59.136Z,15.00
2022-11-01T01:13:25.861Z,14.90
2022-11-01T01:15:52.591Z,15.00
2022-11-01T01:18:19.359Z,15.00
2022-11-01T01:20:46.074Z,15.00
2022-11-01T01:23:12.923Z,15.00
2022-11-01T01:25:42.012Z,15.00
2022-11-01T01:28:09.692Z,15.00
2022-11-01T01:30:41.273Z,15.00
2022-11-01T01:33:09.511Z,14.90
2022-11-01T01:35:38.928Z,15.00
2022-11-01T01:38:07.521Z,15.00
2022-11-01T01:40:35.179Z,15.00
2022-11-01T01:43:01.869Z,15.00
2022-11-01T01:45:40.263Z,15.00
2022-11-01T01:48:16.169Z,15.00
2022-11-01T01:51:15.895Z,15.00
2022-11-01T01:53:48.927Z,15.00
2022-11-01T01:56:27.630Z,15.00
2022-11-01T01:59:09.019Z,15.00
2022-11-01T02:01:39.573Z,15.10
2022-11-01T02:04:19.996Z,15.10
2022-11-01T02:06:48.406Z,15.10
2022-11-01T02:09:17.953Z,15.20
2022-11-01T02:11:44.870Z,15.20
2022-11-01T02:14:14.154Z,15.20
2022-11-01T02:17:07.044Z,15.30
2022-11-01T02:20:32.398Z,15.30
2022-11-01T02:23:30.559Z,15.30
2022-11-01T02:26:30.170Z,15.40
2022-11-01T02:29:39.214Z,15.50
2022-11-01T02:33:11.891Z,15.50
2022-11-01T02:36:13.574Z,15.50
2022-11-01T02:38:51.034Z,15.60
2022-11-01T02:41:30.669Z,15.60
2022-11-01T02:44:04.679Z,15.70
2022-11-01T02:46:57.221Z,15.70
2022-11-01T02:49:38.551Z,15.80
2022-11-01T02:52:28.859Z,15.70
2022-11-01T02:54:59.466Z,15.80
2022-11-01T02:57:34.374Z,15.90
2022-11-01T03:00:23.259Z,15.80
2022-11-01T03:03:23.828Z,15.90
2022-11-01T03:06:01.017Z,15.90
2022-11-01T03:08:44.696Z,15.90
2022-11-01T03:11:43.617Z,15.80
2022-11-01T03:14:52.028Z,15.80
2022-11-01T03:17:27.398Z,15.90
2022-11-01T03:20:48.066Z,15.80
2022-11-01T03:23:37.930Z,15.80
2022-11-01T03:26:27.380Z,15.80
2022-11-01T03:29:06.609Z,15.90
2022-11-01T03:31:38.752Z,15.90
2022-11-01T03:34:18.584Z,15.90
2022-11-01T03:37:00.168Z,16.00
2022-11-01T03:39:49.418Z,15.90
2022-11-01T03:42:21.732Z,15.90
2022-11-01T03:45:06.212Z,15.90
2022-11-01T03:47:32.903Z,15.90
2022-11-01T03:50:19.199Z,15.80
2022-11-01T03:52:46.297Z,15.80
2022-11-01T03:55:18.597Z,15.80
2022-11-01T03:57:57.061Z,15.80
2022-11-01T04:00:26.556Z,15.80
2022-11-01T04:03:00.367Z,15.70
2022-11-01T04:05:31.263Z,15.60
2022-11-01T04:07:58.165Z,15.50
2022-11-01T04:10:29.257Z,15.40
2022-11-01T04:12:57.252Z,15.40
2022-11-01T04:15:44.999Z,15.30
2022-11-01T04:18:34.401Z,15.30
2022-11-01T04:21:36.297Z,15.30
2022-11-01T04:24:06.174Z,15.30
2022-11-01T04:26:34.638Z,15.20
2022-11-01T04:29:03.918Z,15.20
2022-11-01T04:31:34.986Z,15.10
2022-11-01T04:34:06.029Z,15.10
2022-11-01T04:36:32.870Z,15.00
2022-11-01T04:38:59.702Z,14.90
2022-11-01T04:41:28.995Z,15.00
2022-11-01T04:43:58.415Z,14.90
2022-11-01T04:46:30.260Z,14.90
2022-11-01T04:48:57.097Z,14.80
2022-11-01T04:51:24.112Z,14.70
2022-11-01T04:53:50.907Z,14.70
2022-11-01T04:56:17.705Z,14.80
2022-11-01T04:58:46.014Z,14.70
2022-11-01T05:01:14.987Z,14.70
2022-11-01T05:03:43.345Z,14.70
2022-11-01T05:06:10.642Z,14.60
2022-11-01T05:08:37.520Z,14.60
2022-11-01T05:11:08.124Z,14.50
2022-11-01T05:13:35.919Z,14.50
2022-11-01T05:16:18.862Z,14.50
2022-11-01T05:18:51.726Z,14.40
2022-11-01T05:21:18.477Z,14.40
2022-11-01T05:23:48.952Z,14.40
2022-11-01T05:26:18.331Z,14.30
2022-11-01T05:28:45.115Z,14.30
2022-11-01T05:31:11.907Z,14.30
2022-11-01T05:33:38.620Z,14.30
2022-11-01T05:36:05.693Z,14.30
2022-11-01T05:38:32.497Z,14.20
2022-11-01T05:41:03.471Z,14.20
2022-11-01T05:43:33.334Z,14.10
2022-11-01T05:46:10.162Z,14.10
2022-11-01T05:48:36.869Z,14.10
2022-11-01T05:51:03.782Z,14.20
2022-11-01T05:53:30.526Z,14.00
2022-11-01T05:55:57.663Z,14.00
2022-11-01T05:58:27.993Z,14.00
2022-11-01T06:01:05.597Z,14.10
2022-11-01T06:03:33.906Z,14.00
2022-11-01T06:06:00.757Z,14.00
2022-11-01T06:08:27.779Z,14.00
2022-11-01T06:11:03.415Z,14.00
2022-11-01T06:13:32.344Z,14.00
2022-11-01T06:16:04.712Z,14.00
2022-11-01T06:18:32.194Z,14.00
2022-11-01T06:21:02.273Z,14.00
2022-11-01T06:23:28.998Z,14.00
2022-11-01T06:26:03.480Z,13.90
2022-11-01T06:28:30.412Z,13.90
2022-11-01T06:31:02.295Z,13.90
2022-11-01T06:33:30.695Z,13.90
2022-11-01T06:35:58.027Z,13.90
2022-11-01T06:38:24.738Z,13.80
2022-11-01T06:40:55.811Z,13.80
2022-11-01T06:43:22.607Z,13.80
2022-11-01T06:45:49.411Z,13.80
2022-11-01T06:48:16.188Z,13.80
2022-11-01T06:50:45.554Z,13.80
2022-11-01T06:53:12.548Z,13.80
2022-11-01T06:55:40.574Z,13.80
2022-11-01T06:58:07.259Z,13.70
2022-11-01T07:00:34.011Z,13.70
2022-11-01T07:03:04.580Z,13.60
2022-11-01T07:05:37.256Z,13.60
2022-11-01T07:08:13.056Z,13.60
2022-11-01T07:10:50.974Z,13.60
2022-11-01T07:13:17.722Z,13.50
2022-11-01T07:15:44.407Z,13.50
2022-11-01T07:18:11.121Z,13.50
2022-11-01T07:20:42.480Z,13.50
2022-11-01T07:23:16.438Z,13.50
2022-11-01T07:25:43.960Z,13.50
2022-11-01T07:28:11.646Z,13.50
2022-11-01T07:31:06.249Z,13.50
2022-11-01T07:33:38.285Z,13.40
2022-11-01T07:36:05.851Z,13.40
2022-11-01T07:38:32.640Z,13.40
2022-11-01T07:41:43.254Z,13.40
2022-11-01T07:44:22.266Z,13.40
2022-11-01T07:46:49.004Z,13.50
2022-11-01T07:49:15.766Z,13.40
2022-11-01T07:51:42.427Z,13.40
2022-11-01T07:54:17.314Z,13.50
2022-11-01T07:56:43.992Z,13.50
2022-11-01T07:59:20.235Z,13.40
2022-11-01T08:01:47.152Z,13.40
2022-11-01T08:04:33.068Z,13.50
2022-11-01T08:06:59.839Z,13.50
2022-11-01T08:09:26.543Z,13.40
2022-11-01T08:11:53.258Z,13.50
2022-11-01T08:14:26.575Z,13.40
2022-11-01T08:16:55.770Z,13.50
2022-11-01T08:19:37.888Z,13.40
2022-11-01T08:22:05.336Z,13.60
2022-11-01T08:24:52.290Z,13.50
2022-11-01T08:27:18.958Z,13.50
2022-11-01T08:29:45.640Z,13.60
2022-11-01T08:32:13.511Z,13.50
2022-11-01T08:34:41.392Z,13.60
2022-11-01T08:37:08.067Z,13.50
2022-11-01T08:39:34.728Z,13.60
2022-11-01T08:42:01.430Z,13.60
2022-11-01T08:44:28.188Z,13.60
2022-11-01T08:46:55.600Z,13.60
2022-11-01T08:49:22.533Z,13.60
2022-11-01T08:51:49.221Z,13.70
2022-11-01T08:54:20.189Z,13.60
2022-11-01T08:57:05.434Z,13.70
2022-11-01T08:59:35.284Z,13.60
2022-11-01T09:02:02.058Z,13.70
2022-11-01T09:04:35.171Z,13.70
2022-11-01T09:07:01.936Z,13.70
2022-11-01T09:09:29.554Z,13.70
2022-11-01T09:11:56.572Z,13.70
2022-11-01T09:14:25.150Z,13.70
2022-11-01T09:16:52.525Z,13.70
2022-11-01T09:19:19.620Z,13.70
2022-11-01T09:21:46.970Z,13.80
2022-11-01T09:24:17.987Z,13.80
2022-11-01T09:26:44.704Z,13.80
2022-11-01T09:29:15.202Z,13.90
2022-11-01T09:31:53.106Z,14.00
2022-11-01T09:34:21.102Z,14.00
2022-11-01T09:36:48.832Z,14.10
2022-11-01T09:39:17.776Z,14.10
2022-11-01T09:41:50.924Z,14.20
2022-11-01T09:44:26.031Z,14.30
2022-11-01T09:47:12.527Z,14.30
2022-11-01T09:50:06.293Z,14.30
2022-11-01T09:52:33.271Z,14.40
2022-11-01T09:55:00.055Z,14.40
2022-11-01T09:57:49.602Z,14.60
2022-11-01T10:00:20.290Z,14.60
2022-11-01T10:03:43.874Z,14.70
2022-11-01T10:06:44.529Z,14.80
2022-11-01T10:09:19.963Z,14.90
2022-11-01T10:12:18.757Z,15.00
2022-11-01T10:15:39.605Z,15.00
2022-11-01T10:18:28.129Z,15.10
2022-11-01T10:21:16.339Z,15.10
2022-11-01T10:23:50.332Z,15.10
2022-11-01T10:26:45.364Z,15.10
2022-11-01T10:29:33.581Z,15.20
2022-11-01T10:32:05.582Z,15.20
2022-11-01T10:34:41.288Z,15.30
2022-11-01T10:37:57.395Z,15.30
2022-11-01T10:40:43.739Z,15.40
2022-11-01T10:43:22.130Z,15.50
2022-11-01T10:45:55.172Z,15.60
2022-11-01T10:48:38.385Z,15.70
2022-11-01T10:51:09.308Z,15.70
2022-11-01T10:53:46.318Z,15.60
2022-11-01T10:56:24.068Z,15.60
2022-11-01T10:59:06.313Z,15.70
2022-11-01T11:01:44.172Z,15.70
2022-11-01T11:04:16.653Z,15.60
2022-11-01T11:06:52.329Z,15.70
2022-11-01T11:09:34.291Z,15.70
2022-11-01T11:12:08.062Z,15.70
2022-11-01T11:14:36.101Z,15.60
2022-11-01T11:17:04.255Z,15.60
2022-11-01T11:19:30.908Z,15.80
2022-11-01T11:22:00.230Z,15.70
2022-11-01T11:24:40.440Z,15.80
2022-11-01T11:27:34.239Z,15.90
2022-11-01T11:30:55.203Z,15.80
2022-11-01T11:33:22.680Z,15.90
2022-11-01T11:36:08.158Z,15.90
2022-11-01T11:38:50.611Z,16.00
2022-11-01T11:41:31.547Z,16.10
2022-11-01T11:44:02.851Z,16.00
2022-11-01T11:46:29.765Z,16.10
2022-11-01T11:49:04.549Z,16.10
2022-11-01T11:51:39.424Z,16.10
2022-11-01T11:54:29.072Z,16.10
2022-11-01T11:57:25.695Z,16.10
2022-11-01T12:00:05.161Z,16.10
2022-11-01T12:02:37.373Z,16.20
2022-11-01T12:05:19.574Z,16.40
2022-11-01T12:07:49.076Z,16.30
2022-11-01T12:10:40.269Z,16.40
2022-11-01T12:13:35.379Z,16.30
2022-11-01T12:16:24.676Z,16.30
2022-11-01T12:18:58.537Z,16.20
2022-11-01T12:21:40.013Z,16.30
2022-11-01T12:24:27.338Z,16.20
2022-11-01T12:27:01.644Z,16.30
2022-11-01T12:29:45.536Z,16.20
2022-11-01T12:32:35.103Z,16.40
2022-11-01T12:35:16.603Z,16.30
2022-11-01T12:38:26.195Z,16.40
2022-11-01T12:40:54.817Z,16.50
2022-11-01T12:43:33.687Z,16.40
2022-11-01T12:46:16.230Z,16.40
2022-11-01T12:49:02.464Z,16.50
2022-11-01T12:51:47.006Z,16.50
2022-11-01T12:54:27.182Z,16.60
2022-11-01T12:56:58.547Z,16.60
2022-11-01T12:59:34.177Z,16.60
2022-11-01T13:02:29.552Z,16.60
2022-11-01T13:05:07.384Z,16.80
2022-11-01T13:08:02.614Z,16.70
2022-11-01T13:10:43.613Z,16.70
2022-11-01T13:13:37.039Z,16.80
2022-11-01T13:16:09.581Z,16.80
2022-11-01T13:18:59.344Z,16.80
2022-11-01T13:21:49.801Z,16.90
2022-11-01T13:24:25.438Z,16.90
2022-11-01T13:27:34.445Z,16.90
2022-11-01T13:30:11.144Z,16.90
2022-11-01T13:33:01.289Z,17.00
2022-11-01T13:35:40.276Z,16.90
2022-11-01T13:38:29.639Z,17.00
2022-11-01T13:41:09.711Z,17.00
2022-11-01T13:43:45.413Z,16.90
2022-11-01T13:46:40.043Z,16.90
2022-11-01T13:49:09.758Z,17.00
2022-11-01T13:52:00.130Z,17.00
2022-11-01T13:54:33.403Z,17.00
2022-11-01T13:57:17.410Z,17.00
2022-11-01T13:59:55.520Z,16.90
2022-11-01T14:02:28.775Z,16.90
2022-11-01T14:05:05.103Z,16.90
2022-11-01T14:07:44.864Z,17.00
2022-11-01T14:10:31.510Z,17.10
2022-11-01T14:13:07.240Z,16.90
2022-11-01T14:15:39.562Z,16.90
2022-11-01T14:18:10.734Z,16.90
2022-11-01T14:20:44.425Z,16.90
2022-11-01T14:23:40.480Z,16.90
2022-11-01T14:26:22.663Z,16.90
2022-11-01T14:28:54.142Z,16.80
2022-11-01T14:31:24.690Z,16.80
2022-11-01T14:33:56.090Z,16.80
2022-11-01T14:36:40.645Z,16.80
2022-11-01T14:39:28.415Z,16.60
2022-11-01T14:41:58.810Z,16.60
2022-11-01T14:44:37.318Z,16.50
2022-11-01T14:47:23.737Z,16.50
2022-11-01T14:49:58.625Z,16.50
2022-11-01T14:52:59.969Z,16.40
2022-11-01T14:55:44.843Z,16.40
2022-11-01T14:58:23.463Z,16.50
2022-11-01T15:00:54.910Z,16.60
2022-11-01T15:03:23.033Z,16.60
2022-11-01T15:06:02.080Z,16.60
2022-11-01T15:08:45.431Z,16.50
2022-11-01T15:11:12.557Z,16.50
2022-11-01T15:13:50.820Z,16.50
2022-11-01T15:16:26.734Z,16.50
2022-11-01T15:18:59.615Z,16.40
2022-11-01T15:21:30.842Z,16.30
2022-11-01T15:23:59.614Z,16.20
2022-11-01T15:26:31.743Z,16.20
2022-11-01T15:29:16.255Z,16.20
2022-11-01T15:32:06.026Z,16.20
2022-11-01T15:34:34.541Z,16.10
2022-11-01T15:37:20.605Z,16.00
2022-11-01T15:39:47.360Z,16.00
2022-11-01T15:42:27.317Z,16.00
2022-11-01T15:44:54.413Z,16.00
2022-11-01T15:47:26.510Z,16.00
2022-11-01T15:50:06.663Z,16.10
2022-11-01T15:52:35.646Z,16.10
2022-11-01T15:55:26.683Z,16.00
2022-11-01T15:58:06.737Z,16.00
2022-11-01T16:00:47.040Z,16.00
2022-11-01T16:03:46.166Z,15.80
2022-11-01T16:06:54.435Z,15.80
2022-11-01T16:09:37.825Z,15.70
2022-11-01T16:12:17.572Z,15.70
2022-11-01T16:15:25.535Z,15.70
2022-11-01T16:17:57.388Z,15.60
2022-11-01T16:20:43.080Z,15.50
2022-11-01T16:23:35.644Z,15.50
2022-11-01T16:26:07.075Z,15.40
2022-11-01T16:28:44.083Z,15.40
2022-11-01T16:31:28.723Z,15.40
2022-11-01T16:34:34.440Z,15.30
2022-11-01T16:37:01.307Z,15.30
2022-11-01T16:39:31.727Z,15.30
2022-11-01T16:41:59.489Z,15.30
2022-11-01T16:44:29.870Z,15.40
2022-11-01T16:46:56.622Z,15.40
2022-11-01T16:49:27.116Z,15.30
2022-11-01T16:51:56.375Z,15.40
2022-11-01T16:54:25.098Z,15.40
2022-11-01T16:56:55.479Z,15.40
2022-11-01T16:59:34.229Z,15.40
2022-11-01T17:02:11.458Z,15.40
2022-11-01T17:04:40.034Z,15.40
2022-11-01T17:07:09.614Z,15.40
2022-11-01T17:09:36.366Z,15.40
2022-11-01T17:12:03.980Z,15.40
2022-11-01T17:14:30.716Z,15.40
2022-11-01T17:16:59.578Z,15.50
2022-11-01T17:19:35.751Z,15.40
2022-11-01T17:22:35.180Z,15.40
2022-11-01T17:25:04.850Z,15.40
2022-11-01T17:27:31.611Z,15.30
2022-11-01T17:29:58.369Z,15.40
2022-11-01T17:32:27.434Z,15.40
2022-11-01T17:34:54.180Z,15.40
2022-11-01T17:37:22.305Z,15.50
2022-11-01T17:39:49.106Z,15.40
2022-11-01T17:42:15.795Z,15.40
2022-11-01T17:44:42.536Z,15.50
2022-11-01T17:47:14.788Z,15.40
2022-11-01T17:49:41.623Z,15.40
2022-11-01T17:52:08.394Z,15.40
2022-11-01T17:54:35.145Z,15.50
2022-11-01T17:57:01.854Z,15.40
2022-11-01T17:59:28.662Z,15.40
2022-11-01T18:01:55.517Z,15.40
2022-11-01T18:04:22.319Z,15.50
2022-11-01T18:06:49.426Z,15.40
2022-11-01T18:09:27.125Z,15.40
2022-11-01T18:12:24.406Z,15.30
2022-11-01T18:14:56.139Z,15.30
2022-11-01T18:17:54.105Z,15.30
2022-11-01T18:20:45.862Z,15.30
2022-11-01T18:23:20.058Z,15.30
2022-11-01T18:25:49.103Z,15.20
2022-11-01T18:28:19.850Z,15.30
2022-11-01T18:30:54.329Z,15.20
2022-11-01T18:34:06.334Z,15.20
2022-11-01T18:37:01.565Z,15.20
2022-11-01T18:40:03.593Z,15.10
2022-11-01T18:42:30.910Z,15.20
2022-11-01T18:45:07.183Z,15.10
2022-11-01T18:47:42.087Z,15.10
2022-11-01T18:50:24.112Z,15.10
2022-11-01T18:53:10.506Z,15.10
2022-11-01T18:55:47.466Z,15.10
2022-11-01T18:58:24.327Z,15.10
2022-11-01T19:01:23.565Z,15.10
2022-11-01T19:04:19.667Z,15.10
2022-11-01T19:06:46.486Z,15.10
2022-11-01T19:09:28.431Z,15.10
2022-11-01T19:12:13.446Z,15.10
2022-11-01T19:14:40.198Z,15.10
2022-11-01T19:17:29.842Z,15.10
2022-11-01T19:19:59.716Z,15.00
2022-11-01T19:22:39.966Z,15.10
2022-11-01T19:25:36.611Z,15.10
2022-11-01T19:28:16.978Z,15.10
2022-11-01T19:30:51.132Z,15.20
2022-11-01T19:33:37.440Z,15.10
2022-11-01T19:36:13.053Z,15.20
2022-11-01T19:38:44.748Z,15.20
2022-11-01T19:41:28.959Z,15.20
2022-11-01T19:44:11.487Z,15.20
2022-11-01T19:46:38.291Z,15.20
2022-11-01T19:49:35.551Z,15.20
2022-11-01T19:52:08.224Z,15.20
2022-11-01T19:54:42.016Z,15.20
2022-11-01T19:59:49.834Z,15.20
2022-11-01T20:02:22.410Z,15.20
2022-11-01T20:04:57.491Z,15.10
2022-11-01T20:07:26.820Z,15.10
2022-11-01T20:09:58.597Z,15.10
2022-11-01T20:12:25.590Z,15.00
2022-11-01T20:14:52.385Z,15.00
2022-11-01T20:17:19.134Z,15.00
2022-11-01T20:19:45.826Z,14.90
2022-11-01T20:22:12.627Z,15.00
2022-11-01T20:24:39.433Z,15.00
2022-11-01T20:27:06.193Z,14.90
2022-11-01T20:29:32.901Z,14.90
2022-11-01T20:32:00.138Z,14.90
2022-11-01T20:34:28.641Z,14.80
2022-11-01T20:37:26.903Z,14.70
2022-11-01T20:39:42.132Z,14.70
2022-11-01T20:42:09.371Z,14.70
2022-11-01T20:44:36.110Z,14.60
2022-11-01T20:47:02.817Z,14.60
2022-11-01T20:49:29.524Z,14.50
2022-11-01T20:52:03.800Z,14.50
2022-11-01T20:54:41.265Z,14.40
2022-11-01T20:57:12.392Z,14.40
2022-11-01T20:59:51.733Z,14.40
2022-11-01T21:02:19.261Z,14.30
2022-11-01T21:04:59.511Z,14.20
2022-11-01T21:07:33.216Z,14.00
2022-11-01T21:10:00.108Z,14.00
2022-11-01T21:12:47.399Z,13.90
2022-11-01T21:15:26.020Z,13.80
2022-11-01T21:18:09.590Z,13.80
2022-11-01T21:20:46.432Z,13.60
2022-11-01T21:23:31.845Z,13.60
2022-11-01T21:26:02.405Z,13.60
2022-11-01T21:28:45.591Z,13.70
2022-11-01T21:31:15.482Z,13.60
2022-11-01T21:33:50.108Z,13.50
2022-11-01T21:36:45.111Z,13.60
2022-11-01T21:39:25.361Z,13.70
2022-11-01T21:42:03.456Z,13.70
2022-11-01T21:44:41.563Z,13.60
2022-11-01T21:47:25.294Z,13.60
2022-11-01T21:49:52.594Z,13.40
2022-11-01T21:52:19.771Z,13.40
2022-11-01T21:54:47.996Z,13.30
2022-11-01T21:57:16.674Z,13.40
2022-11-01T21:59:44.051Z,13.30
2022-11-01T22:02:13.975Z,13.30
2022-11-01T22:04:42.481Z,13.30
2022-11-01T22:07:10.800Z,13.30
2022-11-01T22:09:38.419Z,13.10
2022-11-01T22:12:08.415Z,13.20
2022-11-01T22:14:35.399Z,13.20
2022-11-01T22:17:02.301Z,13.10
2022-11-01T22:19:29.081Z,13.10
2022-11-01T22:21:55.865Z,13.00
2022-11-01T22:24:23.546Z,13.00
2022-11-01T22:26:50.450Z,12.90
2022-11-01T22:29:17.556Z,12.90
2022-11-01T22:31:44.306Z,13.00
2022-11-01T22:34:11.167Z,13.00
2022-11-01T22:36:41.520Z,13.00
2022-11-01T22:39:21.323Z,13.00
2022-11-01T22:41:48.633Z,13.00
2022-11-01T22:44:25.178Z,13.00
2022-11-01T22:47:01.654Z,13.00
2022-11-01T22:49:34.370Z,13.00
2022-11-01T22:52:34.688Z,12.90
2022-11-01T22:55:10.485Z,12.90
2022-11-01T22:57:46.589Z,13.00
2022-11-01T23:00:37.171Z,13.00
2022-11-01T23:03:35.283Z,13.10
2022-11-01T23:06:32.403Z,13.00
2022-11-01T23:09:14.183Z,13.00
2022-11-01T23:12:11.599Z,13.00
2022-11-01T23:14:45.249Z,13.00
2022-11-01T23:17:31.570Z,12.90
2022-11-01T23:20:01.841Z,12.90
2022-11-01T23:22:35.985Z,12.90
2022-11-01T23:25:05.864Z,12.80
2022-11-01T23:27:32.723Z,12.90
2022-11-01T23:30:02.552Z,13.00
2022-11-01T23:32:31.154Z,12.90
2022-11-01T23:35:21.436Z,12.80
2022-11-01T23:37:51.556Z,12.80
2022-11-01T23:40:21.820Z,12.70
2022-11-01T23:42:49.124Z,12.80
2022-11-01T23:45:36.131Z,12.80
2022-11-01T23:48:02.989Z,12.70
2022-11-01T23:50:36.092Z,12.80
2022-11-01T23:53:14.714Z,12.80
2022-11-01T23:56:06.664Z,12.80
2022-11-01T23:58:35.777Z,12.90
